sensor_id;sensor_type;location;lat;lon;timestamp;P1;durP1;ratioP1;P2;durP2;ratioP2
18411;SDS011;27097;51.738;19.472;2022-08-19T00:00:15;14.45;;;9.75;;
18411;SDS011;27097;51.738;19.472;2022-08-19T00:02:43;13.98;;;9.73;;
18411;SDS011;27097;51.738;19.472;2022-08-19T00:05:11;15.45;;;9.65;;
18411;SDS011;27097;51.738;19.472;2022-08-19T00:07:40;15.05;;;10.68;;
18411;SDS011;27097;51.738;19.472;2022-08-19T00:10:10;12.65;;;9.73;;
18411;SDS011;27097;51.738;19.472;2022-08-19T00:12:39;13.75;;;9.55;;
18411;SDS011;27097;51.738;19.472;2022-08-19T00:15:08;15.60;;;10.15;;
18411;SDS011;27097;51.738;19.472;2022-08-19T00:17:37;13.32;;;10.35;;
18411;SDS011;27097;51.738;19.472;2022-08-19T00:20:05;15.20;;;10.50;;
18411;SDS011;27097;51.738;19.472;2022-08-19T00:22:33;14.07;;;10.50;;
18411;SDS011;27097;51.738;19.472;2022-08-19T00:25:00;15.77;;;10.48;;
18411;SDS011;27097;51.738;19.472;2022-08-19T00:27:29;13.70;;;10.00;;
18411;SDS011;27097;51.738;19.472;2022-08-19T00:29:56;18.13;;;10.00;;
18411;SDS011;27097;51.738;19.472;2022-08-19T00:32:23;15.68;;;9.82;;
18411;SDS011;27097;51.738;19.472;2022-08-19T00:34:50;14.00;;;10.40;;
18411;SDS011;27097;51.738;19.472;2022-08-19T00:37:18;14.50;;;10.27;;
18411;SDS011;27097;51.738;19.472;2022-08-19T00:39:47;15.63;;;10.40;;
18411;SDS011;27097;51.738;19.472;2022-08-19T00:42:16;17.08;;;9.82;;
18411;SDS011;27097;51.738;19.472;2022-08-19T00:44:44;17.40;;;10.93;;
18411;SDS011;27097;51.738;19.472;2022-08-19T00:47:12;14.43;;;9.85;;
18411;SDS011;27097;51.738;19.472;2022-08-19T00:49:40;15.45;;;10.13;;
18411;SDS011;27097;51.738;19.472;2022-08-19T00:52:12;12.98;;;9.88;;
18411;SDS011;27097;51.738;19.472;2022-08-19T00:54:41;16.67;;;10.32;;
18411;SDS011;27097;51.738;19.472;2022-08-19T00:57:09;15.88;;;11.18;;
18411;SDS011;27097;51.738;19.472;2022-08-19T00:59:41;15.80;;;10.88;;
18411;SDS011;27097;51.738;19.472;2022-08-19T01:02:12;12.85;;;9.65;;
18411;SDS011;27097;51.738;19.472;2022-08-19T01:04:40;15.20;;;10.15;;
18411;SDS011;27097;51.738;19.472;2022-08-19T01:07:07;15.85;;;10.60;;
18411;SDS011;27097;51.738;19.472;2022-08-19T01:09:34;14.13;;;10.00;;
18411;SDS011;27097;51.738;19.472;2022-08-19T01:12:01;16.30;;;10.90;;
18411;SDS011;27097;51.738;19.472;2022-08-19T01:14:29;15.25;;;10.90;;
18411;SDS011;27097;51.738;19.472;2022-08-19T01:16:56;16.17;;;10.55;;
18411;SDS011;27097;51.738;19.472;2022-08-19T01:19:27;13.32;;;10.30;;
18411;SDS011;27097;51.738;19.472;2022-08-19T01:21:57;14.73;;;10.32;;
18411;SDS011;27097;51.738;19.472;2022-08-19T01:24:31;15.63;;;11.05;;
18411;SDS011;27097;51.738;19.472;2022-08-19T01:26:58;16.77;;;10.07;;
18411;SDS011;27097;51.738;19.472;2022-08-19T01:29:25;14.63;;;10.32;;
18411;SDS011;27097;51.738;19.472;2022-08-19T01:31:52;14.43;;;10.18;;
18411;SDS011;27097;51.738;19.472;2022-08-19T01:34:19;16.33;;;10.38;;
18411;SDS011;27097;51.738;19.472;2022-08-19T01:36:46;17.40;;;11.10;;
18411;SDS011;27097;51.738;19.472;2022-08-19T01:39:15;15.68;;;9.80;;
18411;SDS011;27097;51.738;19.472;2022-08-19T01:41:45;16.98;;;10.68;;
18411;SDS011;27097;51.738;19.472;2022-08-19T01:44:12;14.95;;;10.30;;
18411;SDS011;27097;51.738;19.472;2022-08-19T01:46:41;15.63;;;9.75;;
18411;SDS011;27097;51.738;19.472;2022-08-19T01:49:09;17.42;;;10.63;;
18411;SDS011;27097;51.738;19.472;2022-08-19T01:51:37;14.45;;;10.15;;
18411;SDS011;27097;51.738;19.472;2022-08-19T01:54:04;16.35;;;10.00;;
18411;SDS011;27097;51.738;19.472;2022-08-19T01:56:31;17.95;;;10.35;;
18411;SDS011;27097;51.738;19.472;2022-08-19T01:59:00;14.02;;;10.00;;
18411;SDS011;27097;51.738;19.472;2022-08-19T02:01:30;13.52;;;9.60;;
18411;SDS011;27097;51.738;19.472;2022-08-19T02:03:58;12.88;;;9.77;;
18411;SDS011;27097;51.738;19.472;2022-08-19T02:06:26;13.52;;;10.15;;
18411;SDS011;27097;51.738;19.472;2022-08-19T02:08:53;15.60;;;9.30;;
18411;SDS011;27097;51.738;19.472;2022-08-19T02:11:22;14.52;;;10.27;;
18411;SDS011;27097;51.738;19.472;2022-08-19T02:13:51;15.68;;;10.07;;
18411;SDS011;27097;51.738;19.472;2022-08-19T02:16:20;14.32;;;10.10;;
18411;SDS011;27097;51.738;19.472;2022-08-19T02:18:47;13.18;;;9.60;;
18411;SDS011;27097;51.738;19.472;2022-08-19T02:21:15;17.52;;;9.63;;
18411;SDS011;27097;51.738;19.472;2022-08-19T02:23:43;13.63;;;10.05;;
18411;SDS011;27097;51.738;19.472;2022-08-19T02:26:10;14.73;;;10.23;;
18411;SDS011;27097;51.738;19.472;2022-08-19T02:28:38;13.15;;;9.55;;
18411;SDS011;27097;51.738;19.472;2022-08-19T02:31:08;15.25;;;9.68;;
18411;SDS011;27097;51.738;19.472;2022-08-19T02:33:37;15.10;;;9.52;;
18411;SDS011;27097;51.738;19.472;2022-08-19T02:36:05;14.55;;;10.48;;
18411;SDS011;27097;51.738;19.472;2022-08-19T02:38:33;14.63;;;9.88;;
18411;SDS011;27097;51.738;19.472;2022-08-19T02:41:02;12.43;;;9.40;;
18411;SDS011;27097;51.738;19.472;2022-08-19T02:43:33;13.18;;;9.57;;
18411;SDS011;27097;51.738;19.472;2022-08-19T02:46:01;16.25;;;9.38;;
18411;SDS011;27097;51.738;19.472;2022-08-19T02:48:38;19.70;;;10.10;;
18411;SDS011;27097;51.738;19.472;2022-08-19T02:51:05;15.25;;;9.63;;
18411;SDS011;27097;51.738;19.472;2022-08-19T02:53:31;14.13;;;9.57;;
18411;SDS011;27097;51.738;19.472;2022-08-19T02:55:58;12.60;;;9.13;;
18411;SDS011;27097;51.738;19.472;2022-08-19T02:58:25;16.42;;;9.80;;
18411;SDS011;27097;51.738;19.472;2022-08-19T03:00:54;16.35;;;9.38;;
18411;SDS011;27097;51.738;19.472;2022-08-19T03:03:22;12.68;;;9.13;;
18411;SDS011;27097;51.738;19.472;2022-08-19T03:05:51;14.98;;;9.10;;
18411;SDS011;27097;51.738;19.472;2022-08-19T03:08:17;14.38;;;9.43;;
18411;SDS011;27097;51.738;19.472;2022-08-19T03:10:45;16.02;;;9.38;;
18411;SDS011;27097;51.738;19.472;2022-08-19T03:13:13;14.98;;;9.27;;
18411;SDS011;27097;51.738;19.472;2022-08-19T03:15:44;14.52;;;9.77;;
18411;SDS011;27097;51.738;19.472;2022-08-19T03:18:12;15.68;;;9.05;;
18411;SDS011;27097;51.738;19.472;2022-08-19T03:20:41;15.10;;;8.73;;
18411;SDS011;27097;51.738;19.472;2022-08-19T03:23:11;15.27;;;9.35;;
18411;SDS011;27097;51.738;19.472;2022-08-19T03:25:39;17.50;;;9.65;;
18411;SDS011;27097;51.738;19.472;2022-08-19T03:28:07;17.52;;;9.38;;
18411;SDS011;27097;51.738;19.472;2022-08-19T03:30:34;15.90;;;9.50;;
18411;SDS011;27097;51.738;19.472;2022-08-19T03:33:00;14.35;;;9.52;;
18411;SDS011;27097;51.738;19.472;2022-08-19T03:35:27;15.05;;;9.80;;
18411;SDS011;27097;51.738;19.472;2022-08-19T03:37:54;13.35;;;9.77;;
18411;SDS011;27097;51.738;19.472;2022-08-19T03:40:23;11.60;;;8.85;;
18411;SDS011;27097;51.738;19.472;2022-08-19T03:42:50;12.93;;;9.07;;
18411;SDS011;27097;51.738;19.472;2022-08-19T03:45:17;15.85;;;9.70;;
18411;SDS011;27097;51.738;19.472;2022-08-19T03:47:44;15.77;;;9.93;;
18411;SDS011;27097;51.738;19.472;2022-08-19T03:50:11;15.45;;;9.32;;
18411;SDS011;27097;51.738;19.472;2022-08-19T03:52:38;14.32;;;9.05;;
18411;SDS011;27097;51.738;19.472;2022-08-19T03:55:06;15.55;;;9.95;;
18411;SDS011;27097;51.738;19.472;2022-08-19T03:57:35;18.83;;;9.88;;
18411;SDS011;27097;51.738;19.472;2022-08-19T04:00:03;12.65;;;9.48;;
18411;SDS011;27097;51.738;19.472;2022-08-19T04:02:31;15.88;;;9.77;;
18411;SDS011;27097;51.738;19.472;2022-08-19T04:04:58;17.88;;;9.80;;
18411;SDS011;27097;51.738;19.472;2022-08-19T04:07:25;16.02;;;9.82;;
18411;SDS011;27097;51.738;19.472;2022-08-19T04:09:52;13.55;;;9.48;;
18411;SDS011;27097;51.738;19.472;2022-08-19T04:12:19;15.65;;;10.00;;
18411;SDS011;27097;51.738;19.472;2022-08-19T04:14:48;18.40;;;9.98;;
18411;SDS011;27097;51.738;19.472;2022-08-19T04:17:15;18.13;;;10.15;;
18411;SDS011;27097;51.738;19.472;2022-08-19T04:19:42;16.30;;;9.95;;
18411;SDS011;27097;51.738;19.472;2022-08-19T04:22:09;16.38;;;9.98;;
18411;SDS011;27097;51.738;19.472;2022-08-19T04:24:38;14.93;;;10.38;;
18411;SDS011;27097;51.738;19.472;2022-08-19T04:27:05;16.20;;;10.23;;
18411;SDS011;27097;51.738;19.472;2022-08-19T04:29:32;13.05;;;9.50;;
18411;SDS011;27097;51.738;19.472;2022-08-19T04:32:01;13.20;;;9.73;;
18411;SDS011;27097;51.738;19.472;2022-08-19T04:34:28;15.23;;;9.27;;
18411;SDS011;27097;51.738;19.472;2022-08-19T04:36:56;14.75;;;9.73;;
18411;SDS011;27097;51.738;19.472;2022-08-19T04:39:25;15.20;;;9.57;;
18411;SDS011;27097;51.738;19.472;2022-08-19T04:42:14;17.38;;;9.38;;
18411;SDS011;27097;51.738;19.472;2022-08-19T04:45:00;15.02;;;9.35;;
18411;SDS011;27097;51.738;19.472;2022-08-19T04:47:29;15.50;;;9.95;;
18411;SDS011;27097;51.738;19.472;2022-08-19T04:49:57;12.43;;;9.80;;
18411;SDS011;27097;51.738;19.472;2022-08-19T04:52:25;19.98;;;9.68;;
18411;SDS011;27097;51.738;19.472;2022-08-19T04:54:52;13.70;;;9.93;;
18411;SDS011;27097;51.738;19.472;2022-08-19T04:57:20;13.23;;;9.60;;
18411;SDS011;27097;51.738;19.472;2022-08-19T04:59:47;17.38;;;9.85;;
18411;SDS011;27097;51.738;19.472;2022-08-19T05:02:15;13.10;;;9.73;;
18411;SDS011;27097;51.738;19.472;2022-08-19T05:04:43;18.50;;;9.40;;
18411;SDS011;27097;51.738;19.472;2022-08-19T05:07:10;14.23;;;9.25;;
18411;SDS011;27097;51.738;19.472;2022-08-19T05:09:38;12.57;;;8.95;;
18411;SDS011;27097;51.738;19.472;2022-08-19T05:12:05;15.68;;;9.82;;
18411;SDS011;27097;51.738;19.472;2022-08-19T05:14:34;18.60;;;10.02;;
18411;SDS011;27097;51.738;19.472;2022-08-19T05:17:02;12.98;;;9.43;;
18411;SDS011;27097;51.738;19.472;2022-08-19T05:19:29;16.30;;;9.80;;
18411;SDS011;27097;51.738;19.472;2022-08-19T05:22:14;17.73;;;9.50;;
18411;SDS011;27097;51.738;19.472;2022-08-19T05:25:01;15.07;;;9.30;;
18411;SDS011;27097;51.738;19.472;2022-08-19T05:27:30;12.85;;;9.80;;
18411;SDS011;27097;51.738;19.472;2022-08-19T05:29:57;15.30;;;10.25;;
18411;SDS011;27097;51.738;19.472;2022-08-19T05:32:24;16.33;;;9.55;;
18411;SDS011;27097;51.738;19.472;2022-08-19T05:34:51;13.88;;;9.55;;
18411;SDS011;27097;51.738;19.472;2022-08-19T05:37:20;19.85;;;10.45;;
18411;SDS011;27097;51.738;19.472;2022-08-19T05:39:47;14.73;;;9.95;;
18411;SDS011;27097;51.738;19.472;2022-08-19T05:42:15;15.52;;;9.75;;
18411;SDS011;27097;51.738;19.472;2022-08-19T05:44:43;15.82;;;10.13;;
18411;SDS011;27097;51.738;19.472;2022-08-19T05:47:10;14.85;;;9.88;;
18411;SDS011;27097;51.738;19.472;2022-08-19T05:49:40;16.75;;;10.05;;
18411;SDS011;27097;51.738;19.472;2022-08-19T05:52:08;15.85;;;9.88;;
18411;SDS011;27097;51.738;19.472;2022-08-19T05:54:38;19.35;;;10.43;;
18411;SDS011;27097;51.738;19.472;2022-08-19T05:57:06;18.02;;;10.10;;
18411;SDS011;27097;51.738;19.472;2022-08-19T05:59:34;18.30;;;10.25;;
18411;SDS011;27097;51.738;19.472;2022-08-19T06:02:02;17.17;;;9.90;;
18411;SDS011;27097;51.738;19.472;2022-08-19T06:04:30;13.45;;;9.57;;
18411;SDS011;27097;51.738;19.472;2022-08-19T06:06:57;15.35;;;9.40;;
18411;SDS011;27097;51.738;19.472;2022-08-19T06:09:24;15.82;;;9.80;;
18411;SDS011;27097;51.738;19.472;2022-08-19T06:11:53;15.82;;;10.18;;
18411;SDS011;27097;51.738;19.472;2022-08-19T06:14:25;14.07;;;10.40;;
18411;SDS011;27097;51.738;19.472;2022-08-19T06:16:53;17.90;;;10.00;;
18411;SDS011;27097;51.738;19.472;2022-08-19T06:19:21;15.63;;;10.10;;
18411;SDS011;27097;51.738;19.472;2022-08-19T06:21:51;16.52;;;9.65;;
18411;SDS011;27097;51.738;19.472;2022-08-19T06:24:19;15.90;;;9.88;;
18411;SDS011;27097;51.738;19.472;2022-08-19T06:26:49;14.40;;;10.23;;
18411;SDS011;27097;51.738;19.472;2022-08-19T06:29:20;16.08;;;10.20;;
18411;SDS011;27097;51.738;19.472;2022-08-19T06:31:50;15.77;;;9.88;;
18411;SDS011;27097;51.738;19.472;2022-08-19T06:34:19;17.20;;;10.57;;
18411;SDS011;27097;51.738;19.472;2022-08-19T06:36:47;16.25;;;9.40;;
18411;SDS011;27097;51.738;19.472;2022-08-19T06:39:17;16.27;;;9.93;;
18411;SDS011;27097;51.738;19.472;2022-08-19T06:41:46;17.65;;;9.77;;
18411;SDS011;27097;51.738;19.472;2022-08-19T06:44:15;14.20;;;9.45;;
18411;SDS011;27097;51.738;19.472;2022-08-19T06:46:44;16.67;;;10.35;;
18411;SDS011;27097;51.738;19.472;2022-08-19T06:49:11;14.52;;;9.88;;
18411;SDS011;27097;51.738;19.472;2022-08-19T06:51:41;16.83;;;10.30;;
18411;SDS011;27097;51.738;19.472;2022-08-19T06:54:09;15.30;;;9.65;;
18411;SDS011;27097;51.738;19.472;2022-08-19T06:56:36;14.85;;;9.30;;
18411;SDS011;27097;51.738;19.472;2022-08-19T06:59:05;20.80;;;10.13;;
18411;SDS011;27097;51.738;19.472;2022-08-19T07:01:36;15.30;;;10.27;;
18411;SDS011;27097;51.738;19.472;2022-08-19T07:04:07;15.45;;;10.15;;
18411;SDS011;27097;51.738;19.472;2022-08-19T07:06:35;17.42;;;10.32;;
18411;SDS011;27097;51.738;19.472;2022-08-19T07:09:03;16.10;;;9.82;;
18411;SDS011;27097;51.738;19.472;2022-08-19T07:11:34;13.75;;;9.80;;
18411;SDS011;27097;51.738;19.472;2022-08-19T07:14:01;13.70;;;9.18;;
18411;SDS011;27097;51.738;19.472;2022-08-19T07:16:29;17.67;;;9.98;;
18411;SDS011;27097;51.738;19.472;2022-08-19T07:18:57;17.35;;;9.80;;
18411;SDS011;27097;51.738;19.472;2022-08-19T07:21:26;13.88;;;10.38;;
18411;SDS011;27097;51.738;19.472;2022-08-19T07:23:54;17.35;;;9.75;;
18411;SDS011;27097;51.738;19.472;2022-08-19T07:26:23;17.90;;;10.18;;
18411;SDS011;27097;51.738;19.472;2022-08-19T07:28:53;18.00;;;10.82;;
18411;SDS011;27097;51.738;19.472;2022-08-19T07:31:21;12.75;;;9.40;;
18411;SDS011;27097;51.738;19.472;2022-08-19T07:33:50;19.27;;;10.43;;
18411;SDS011;27097;51.738;19.472;2022-08-19T07:36:21;18.60;;;10.27;;
18411;SDS011;27097;51.738;19.472;2022-08-19T07:38:52;16.80;;;10.00;;
18411;SDS011;27097;51.738;19.472;2022-08-19T07:41:20;15.48;;;9.55;;
18411;SDS011;27097;51.738;19.472;2022-08-19T07:43:50;18.08;;;10.45;;
18411;SDS011;27097;51.738;19.472;2022-08-19T07:46:19;13.52;;;9.93;;
18411;SDS011;27097;51.738;19.472;2022-08-19T07:48:47;15.43;;;10.23;;
18411;SDS011;27097;51.738;19.472;2022-08-19T07:51:18;16.92;;;10.50;;
18411;SDS011;27097;51.738;19.472;2022-08-19T07:53:46;15.63;;;9.23;;
18411;SDS011;27097;51.738;19.472;2022-08-19T07:56:17;13.93;;;9.10;;
18411;SDS011;27097;51.738;19.472;2022-08-19T07:58:46;16.13;;;9.30;;
18411;SDS011;27097;51.738;19.472;2022-08-19T08:01:15;14.15;;;9.73;;
18411;SDS011;27097;51.738;19.472;2022-08-19T08:03:44;14.00;;;9.30;;
18411;SDS011;27097;51.738;19.472;2022-08-19T08:06:29;12.15;;;9.93;;
18411;SDS011;27097;51.738;19.472;2022-08-19T08:09:14;15.10;;;10.13;;
18411;SDS011;27097;51.738;19.472;2022-08-19T08:11:48;14.10;;;9.70;;
18411;SDS011;27097;51.738;19.472;2022-08-19T08:14:19;12.65;;;9.10;;
18411;SDS011;27097;51.738;19.472;2022-08-19T08:16:48;24.77;;;9.95;;
18411;SDS011;27097;51.738;19.472;2022-08-19T08:19:16;15.93;;;9.52;;
18411;SDS011;27097;51.738;19.472;2022-08-19T08:21:45;13.05;;;8.77;;
18411;SDS011;27097;51.738;19.472;2022-08-19T08:24:13;13.70;;;9.02;;
18411;SDS011;27097;51.738;19.472;2022-08-19T08:26:40;14.95;;;9.68;;
18411;SDS011;27097;51.738;19.472;2022-08-19T08:29:10;15.52;;;9.50;;
18411;SDS011;27097;51.738;19.472;2022-08-19T08:31:38;13.13;;;9.07;;
18411;SDS011;27097;51.738;19.472;2022-08-19T08:34:06;12.85;;;9.20;;
18411;SDS011;27097;51.738;19.472;2022-08-19T08:36:35;14.20;;;9.50;;
18411;SDS011;27097;51.738;19.472;2022-08-19T08:39:05;15.90;;;9.60;;
18411;SDS011;27097;51.738;19.472;2022-08-19T08:41:34;16.00;;;9.15;;
18411;SDS011;27097;51.738;19.472;2022-08-19T08:44:10;11.57;;;9.02;;
18411;SDS011;27097;51.738;19.472;2022-08-19T08:46:44;18.88;;;9.57;;
18411;SDS011;27097;51.738;19.472;2022-08-19T08:49:20;11.32;;;9.10;;
18411;SDS011;27097;51.738;19.472;2022-08-19T08:51:54;12.30;;;9.20;;
18411;SDS011;27097;51.738;19.472;2022-08-19T08:54:30;15.95;;;9.35;;
18411;SDS011;27097;51.738;19.472;2022-08-19T08:57:00;15.02;;;9.38;;
18411;SDS011;27097;51.738;19.472;2022-08-19T08:59:34;15.80;;;9.80;;
18411;SDS011;27097;51.738;19.472;2022-08-19T09:02:03;12.95;;;9.35;;
18411;SDS011;27097;51.738;19.472;2022-08-19T09:04:30;12.55;;;9.40;;
18411;SDS011;27097;51.738;19.472;2022-08-19T09:07:01;17.90;;;9.93;;
18411;SDS011;27097;51.738;19.472;2022-08-19T09:09:41;12.32;;;9.65;;
18411;SDS011;27097;51.738;19.472;2022-08-19T09:12:14;13.88;;;9.35;;
18411;SDS011;27097;51.738;19.472;2022-08-19T09:14:50;17.95;;;9.65;;
18411;SDS011;27097;51.738;19.472;2022-08-19T09:17:20;17.92;;;9.48;;
18411;SDS011;27097;51.738;19.472;2022-08-19T09:19:56;15.25;;;9.75;;
18411;SDS011;27097;51.738;19.472;2022-08-19T09:22:25;14.98;;;9.38;;
18411;SDS011;27097;51.738;19.472;2022-08-19T09:24:53;14.20;;;9.73;;
18411;SDS011;27097;51.738;19.472;2022-08-19T09:27:21;12.77;;;9.27;;
18411;SDS011;27097;51.738;19.472;2022-08-19T09:29:51;13.55;;;9.57;;
18411;SDS011;27097;51.738;19.472;2022-08-19T09:32:19;14.13;;;9.00;;
18411;SDS011;27097;51.738;19.472;2022-08-19T09:34:46;15.23;;;9.85;;
18411;SDS011;27097;51.738;19.472;2022-08-19T09:37:13;15.25;;;9.65;;
18411;SDS011;27097;51.738;19.472;2022-08-19T09:39:44;12.98;;;8.55;;
18411;SDS011;27097;51.738;19.472;2022-08-19T09:42:10;12.23;;;9.75;;
18411;SDS011;27097;51.738;19.472;2022-08-19T09:44:41;14.68;;;9.45;;
18411;SDS011;27097;51.738;19.472;2022-08-19T09:47:10;12.38;;;9.63;;
18411;SDS011;27097;51.738;19.472;2022-08-19T09:49:39;13.30;;;8.95;;
18411;SDS011;27097;51.738;19.472;2022-08-19T09:52:07;14.10;;;9.70;;
18411;SDS011;27097;51.738;19.472;2022-08-19T09:54:36;12.70;;;9.35;;
18411;SDS011;27097;51.738;19.472;2022-08-19T09:57:04;14.57;;;9.20;;
18411;SDS011;27097;51.738;19.472;2022-08-19T09:59:31;13.85;;;9.20;;
18411;SDS011;27097;51.738;19.472;2022-08-19T10:02:03;12.68;;;8.82;;
18411;SDS011;27097;51.738;19.472;2022-08-19T10:04:31;18.63;;;10.00;;
18411;SDS011;27097;51.738;19.472;2022-08-19T10:07:12;15.05;;;9.68;;
18411;SDS011;27097;51.738;19.472;2022-08-19T10:09:39;14.93;;;9.35;;
18411;SDS011;27097;51.738;19.472;2022-08-19T10:12:07;13.35;;;9.50;;
18411;SDS011;27097;51.738;19.472;2022-08-19T10:14:34;15.95;;;9.13;;
18411;SDS011;27097;51.738;19.472;2022-08-19T10:17:02;12.93;;;9.15;;
18411;SDS011;27097;51.738;19.472;2022-08-19T10:19:29;15.10;;;9.30;;
18411;SDS011;27097;51.738;19.472;2022-08-19T10:22:03;14.15;;;9.55;;
18411;SDS011;27097;51.738;19.472;2022-08-19T10:24:32;16.05;;;9.20;;
18411;SDS011;27097;51.738;19.472;2022-08-19T10:26:59;13.40;;;9.35;;
18411;SDS011;27097;51.738;19.472;2022-08-19T10:29:28;21.42;;;9.60;;
18411;SDS011;27097;51.738;19.472;2022-08-19T10:31:56;10.55;;;8.38;;
18411;SDS011;27097;51.738;19.472;2022-08-19T10:34:25;13.98;;;9.30;;
18411;SDS011;27097;51.738;19.472;2022-08-19T10:36:54;14.75;;;9.05;;
18411;SDS011;27097;51.738;19.472;2022-08-19T10:39:24;11.68;;;9.35;;
18411;SDS011;27097;51.738;19.472;2022-08-19T10:41:52;14.13;;;9.13;;
18411;SDS011;27097;51.738;19.472;2022-08-19T10:44:21;12.10;;;8.93;;
18411;SDS011;27097;51.738;19.472;2022-08-19T10:46:49;13.23;;;9.10;;
18411;SDS011;27097;51.738;19.472;2022-08-19T10:49:17;14.75;;;9.80;;
18411;SDS011;27097;51.738;19.472;2022-08-19T10:51:44;14.05;;;9.50;;
18411;SDS011;27097;51.738;19.472;2022-08-19T10:54:32;12.10;;;9.05;;
18411;SDS011;27097;51.738;19.472;2022-08-19T10:57:16;16.95;;;9.32;;
18411;SDS011;27097;51.738;19.472;2022-08-19T10:59:43;13.80;;;9.02;;
18411;SDS011;27097;51.738;19.472;2022-08-19T11:02:11;13.30;;;8.68;;
18411;SDS011;27097;51.738;19.472;2022-08-19T11:04:39;11.88;;;9.20;;
18411;SDS011;27097;51.738;19.472;2022-08-19T11:07:06;12.88;;;8.77;;
18411;SDS011;27097;51.738;19.472;2022-08-19T11:09:38;17.52;;;8.95;;
18411;SDS011;27097;51.738;19.472;2022-08-19T11:12:08;13.57;;;9.50;;
18411;SDS011;27097;51.738;19.472;2022-08-19T11:14:37;16.52;;;9.00;;
18411;SDS011;27097;51.738;19.472;2022-08-19T11:17:05;14.93;;;9.30;;
18411;SDS011;27097;51.738;19.472;2022-08-19T11:19:32;15.48;;;9.13;;
18411;SDS011;27097;51.738;19.472;2022-08-19T11:21:59;12.68;;;9.63;;
18411;SDS011;27097;51.738;19.472;2022-08-19T11:24:28;14.90;;;8.82;;
18411;SDS011;27097;51.738;19.472;2022-08-19T11:27:01;14.38;;;8.80;;
18411;SDS011;27097;51.738;19.472;2022-08-19T11:29:30;14.48;;;9.30;;
18411;SDS011;27097;51.738;19.472;2022-08-19T11:31:57;17.42;;;9.45;;
18411;SDS011;27097;51.738;19.472;2022-08-19T11:34:26;14.43;;;9.05;;
18411;SDS011;27097;51.738;19.472;2022-08-19T11:36:54;14.85;;;9.25;;
18411;SDS011;27097;51.738;19.472;2022-08-19T11:39:24;12.05;;;9.48;;
18411;SDS011;27097;51.738;19.472;2022-08-19T11:41:52;16.25;;;9.25;;
18411;SDS011;27097;51.738;19.472;2022-08-19T11:44:20;13.82;;;8.75;;
18411;SDS011;27097;51.738;19.472;2022-08-19T11:46:47;15.30;;;9.05;;
18411;SDS011;27097;51.738;19.472;2022-08-19T11:49:15;14.23;;;8.68;;
18411;SDS011;27097;51.738;19.472;2022-08-19T11:51:43;13.15;;;9.40;;
18411;SDS011;27097;51.738;19.472;2022-08-19T11:54:11;13.82;;;9.77;;
18411;SDS011;27097;51.738;19.472;2022-08-19T11:56:39;12.63;;;9.00;;
18411;SDS011;27097;51.738;19.472;2022-08-19T11:59:07;13.38;;;8.75;;
18411;SDS011;27097;51.738;19.472;2022-08-19T12:01:36;12.13;;;9.00;;
18411;SDS011;27097;51.738;19.472;2022-08-19T12:04:05;13.35;;;9.20;;
18411;SDS011;27097;51.738;19.472;2022-08-19T12:06:33;12.23;;;8.95;;
18411;SDS011;27097;51.738;19.472;2022-08-19T12:09:01;14.20;;;8.88;;
18411;SDS011;27097;51.738;19.472;2022-08-19T12:11:31;15.70;;;8.60;;
18411;SDS011;27097;51.738;19.472;2022-08-19T12:13:58;16.50;;;8.60;;
18411;SDS011;27097;51.738;19.472;2022-08-19T12:16:26;14.50;;;9.10;;
18411;SDS011;27097;51.738;19.472;2022-08-19T12:18:57;13.90;;;9.20;;
18411;SDS011;27097;51.738;19.472;2022-08-19T12:21:28;14.35;;;9.18;;
18411;SDS011;27097;51.738;19.472;2022-08-19T12:23:56;15.75;;;9.10;;
18411;SDS011;27097;51.738;19.472;2022-08-19T12:26:24;14.35;;;9.23;;
18411;SDS011;27097;51.738;19.472;2022-08-19T12:28:52;16.58;;;8.82;;
18411;SDS011;27097;51.738;19.472;2022-08-19T12:31:20;14.80;;;9.13;;
18411;SDS011;27097;51.738;19.472;2022-08-19T12:33:47;15.30;;;8.68;;
18411;SDS011;27097;51.738;19.472;2022-08-19T12:36:16;12.95;;;8.88;;
18411;SDS011;27097;51.738;19.472;2022-08-19T12:38:43;12.68;;;8.75;;
18411;SDS011;27097;51.738;19.472;2022-08-19T12:41:12;17.50;;;9.02;;
18411;SDS011;27097;51.738;19.472;2022-08-19T12:43:42;14.68;;;8.95;;
18411;SDS011;27097;51.738;19.472;2022-08-19T12:46:09;13.57;;;9.48;;
18411;SDS011;27097;51.738;19.472;2022-08-19T12:48:37;14.05;;;8.68;;
18411;SDS011;27097;51.738;19.472;2022-08-19T12:51:07;14.40;;;7.95;;
18411;SDS011;27097;51.738;19.472;2022-08-19T12:53:37;18.60;;;8.65;;
18411;SDS011;27097;51.738;19.472;2022-08-19T12:56:03;15.07;;;8.88;;
18411;SDS011;27097;51.738;19.472;2022-08-19T12:58:31;13.07;;;8.38;;
18411;SDS011;27097;51.738;19.472;2022-08-19T13:00:59;12.57;;;8.75;;
18411;SDS011;27097;51.738;19.472;2022-08-19T13:03:31;13.63;;;8.38;;
18411;SDS011;27097;51.738;19.472;2022-08-19T13:05:58;15.55;;;8.85;;
18411;SDS011;27097;51.738;19.472;2022-08-19T13:08:25;17.73;;;8.45;;
18411;SDS011;27097;51.738;19.472;2022-08-19T13:10:53;21.25;;;8.98;;
18411;SDS011;27097;51.738;19.472;2022-08-19T13:13:20;17.85;;;8.70;;
18411;SDS011;27097;51.738;19.472;2022-08-19T13:15:47;16.98;;;8.85;;
18411;SDS011;27097;51.738;19.472;2022-08-19T13:18:14;17.27;;;9.15;;
18411;SDS011;27097;51.738;19.472;2022-08-19T13:20:42;15.52;;;8.82;;
18411;SDS011;27097;51.738;19.472;2022-08-19T13:23:09;12.43;;;8.85;;
18411;SDS011;27097;51.738;19.472;2022-08-19T13:25:36;15.63;;;8.55;;
18411;SDS011;27097;51.738;19.472;2022-08-19T13:28:04;15.63;;;7.85;;
18411;SDS011;27097;51.738;19.472;2022-08-19T13:30:32;16.55;;;8.90;;
18411;SDS011;27097;51.738;19.472;2022-08-19T13:33:16;14.82;;;8.57;;
18411;SDS011;27097;51.738;19.472;2022-08-19T13:35:45;16.90;;;9.25;;
18411;SDS011;27097;51.738;19.472;2022-08-19T13:38:13;17.25;;;8.68;;
18411;SDS011;27097;51.738;19.472;2022-08-19T13:40:43;12.13;;;9.18;;
18411;SDS011;27097;51.738;19.472;2022-08-19T13:43:13;12.93;;;9.15;;
18411;SDS011;27097;51.738;19.472;2022-08-19T13:45:40;16.60;;;9.60;;
18411;SDS011;27097;51.738;19.472;2022-08-19T13:48:07;12.52;;;8.88;;
18411;SDS011;27097;51.738;19.472;2022-08-19T13:50:37;14.82;;;9.10;;
18411;SDS011;27097;51.738;19.472;2022-08-19T13:53:06;16.35;;;8.98;;
18411;SDS011;27097;51.738;19.472;2022-08-19T13:55:34;13.68;;;9.63;;
18411;SDS011;27097;51.738;19.472;2022-08-19T13:58:03;15.82;;;9.40;;
18411;SDS011;27097;51.738;19.472;2022-08-19T14:00:33;16.05;;;9.32;;
18411;SDS011;27097;51.738;19.472;2022-08-19T14:03:01;15.02;;;9.43;;
18411;SDS011;27097;51.738;19.472;2022-08-19T14:05:29;15.95;;;8.68;;
18411;SDS011;27097;51.738;19.472;2022-08-19T14:07:56;13.63;;;9.27;;
18411;SDS011;27097;51.738;19.472;2022-08-19T14:10:24;14.27;;;9.18;;
18411;SDS011;27097;51.738;19.472;2022-08-19T14:12:53;17.30;;;9.05;;
18411;SDS011;27097;51.738;19.472;2022-08-19T14:15:21;15.68;;;9.55;;
18411;SDS011;27097;51.738;19.472;2022-08-19T14:17:50;14.73;;;9.07;;
18411;SDS011;27097;51.738;19.472;2022-08-19T14:20:18;15.02;;;8.20;;
18411;SDS011;27097;51.738;19.472;2022-08-19T14:22:46;14.43;;;9.27;;
18411;SDS011;27097;51.738;19.472;2022-08-19T14:25:15;12.18;;;8.30;;
18411;SDS011;27097;51.738;19.472;2022-08-19T14:27:46;12.70;;;8.80;;